Time;durP1;ratioP1;P1;durP2;ratioP2;P2;SDS_P1;SDS_P2;PMS_P1;PMS_P2;Temp;Humidity;BMP_temperature;BMP_pressure;BME280_temperature;BME280_humidity;BME280_pressure;Samples;Min_cycle;Max_cycle;Signal;HPM_P1;HPM_P2
2022/09/30 00:01:44;;;;;;;82.18;6.60;;;9.00;99.90;;;;;;5070398;28;20436;-76
2022/09/30 00:04:18;;;;;;;26.98;5.18;;;9.00;99.90;;;;;;5051257;28;20042;-76
2022/09/30 00:06:45;;;;;;;25.48;4.20;;;9.00;99.90;;;;;;5076272;28;20036;-74
2022/09/30 00:09:11;;;;;;;24.50;4.40;;;9.00;99.90;;;;;;5051094;28;20045;-76
2022/09/30 00:11:39;;;;;;;9.88;3.70;;;8.90;99.90;;;;;;5063349;28;20038;-75
2022/09/30 00:14:07;;;;;;;10.85;4.07;;;9.00;99.90;;;;;;5054400;28;20410;-75
2022/09/30 00:16:35;;;;;;;4.93;3.20;;;8.90;99.90;;;;;;5049322;28;20125;-76
2022/09/30 00:19:04;;;;;;;29.38;4.72;;;9.00;99.90;;;;;;5070083;28;20047;-75
2022/09/30 00:21:32;;;;;;;63.63;5.47;;;9.00;99.90;;;;;;5068756;28;20050;-76
2022/09/30 00:23:58;;;;;;;29.35;4.88;;;9.00;99.90;;;;;;5064993;28;20365;-76
2022/09/30 00:26:24;;;;;;;32.65;4.50;;;8.90;99.90;;;;;;5061597;28;20091;-76
2022/09/30 00:28:52;;;;;;;9.00;3.55;;;8.90;99.90;;;;;;5063742;28;20061;-76
2022/09/30 00:31:20;;;;;;;11.50;4.07;;;8.90;99.90;;;;;;5070826;28;20053;-76
2022/09/30 00:36:36;;;;;;;13.18;4.38;;;8.90;99.90;;;;;;5045654;28;20050;-75
2022/09/30 00:39:03;;;;;;;7.68;4.05;;;8.80;99.90;;;;;;5069181;28;20054;-75
2022/09/30 00:41:29;;;;;;;9.00;3.90;;;8.80;99.90;;;;;;5076997;28;20046;-75
2022/09/30 00:43:54;;;;;;;7.07;3.83;;;8.90;99.90;;;;;;5072425;28;20054;-75
2022/09/30 00:46:34;;;;;;;5.23;3.53;;;8.70;99.90;;;;;;5072539;28;20373;-75
2022/09/30 00:49:04;;;;;;;5.43;3.80;;;8.70;99.90;;;;;;5067480;28;20055;-75
2022/09/30 00:51:40;;;;;;;5.32;4.28;;;8.70;99.90;;;;;;5073887;28;20506;-75
2022/09/30 00:54:12;;;;;;;4.78;4.00;;;8.90;99.90;;;;;;5070886;28;20048;-75
2022/09/30 00:56:42;;;;;;;4.88;4.00;;;8.70;99.90;;;;;;5073570;28;20044;-75
2022/09/30 00:59:16;;;;;;;5.40;4.10;;;8.60;99.90;;;;;;5080890;28;20039;-75
2022/09/30 01:01:42;;;;;;;4.40;3.80;;;8.60;99.90;;;;;;5068014;28;20037;-75
2022/09/30 01:04:17;;;;;;;6.43;3.95;;;8.60;99.90;;;;;;5051133;28;20100;-75
2022/09/30 01:06:43;;;;;;;5.10;3.97;;;8.60;99.90;;;;;;5079943;28;20052;-75
2022/09/30 01:09:10;;;;;;;42.80;4.78;;;8.70;99.90;;;;;;5067073;28;20049;-75
2022/09/30 01:11:36;;;;;;;98.43;7.38;;;8.60;99.90;;;;;;5061543;28;20037;-75
2022/09/30 01:14:07;;;;;;;64.03;5.22;;;8.60;99.90;;;;;;5058340;28;20104;-76
2022/09/30 01:16:57;;;;;;;65.57;5.40;;;8.60;99.90;;;;;;5073306;28;20049;-75
2022/09/30 01:19:57;;;;;;;97.53;6.43;;;8.70;99.90;;;;;;5084061;28;20050;-75
2022/09/30 01:22:32;;;;;;;77.45;5.07;;;8.70;99.90;;;;;;5064193;28;20116;-75
2022/09/30 01:25:41;;;;;;;68.13;4.93;;;8.70;99.90;;;;;;5078174;28;20653;-75
2022/09/30 01:28:25;;;;;;;58.13;4.97;;;8.70;99.90;;;;;;5079979;28;20041;-75
2022/09/30 01:31:15;;;;;;;92.88;5.70;;;8.70;99.90;;;;;;5074366;28;20069;-75
2022/09/30 01:33:59;;;;;;;40.03;3.35;;;8.60;99.90;;;;;;5062468;28;20046;-75
2022/09/30 01:36:55;;;;;;;18.25;2.67;;;8.50;99.90;;;;;;5068024;28;20046;-75
2022/09/30 01:39:47;;;;;;;31.45;3.28;;;8.40;99.90;;;;;;5071942;28;20603;-76
2022/09/30 01:42:37;;;;;;;31.48;3.22;;;8.40;99.90;;;;;;5064935;28;20044;-75
2022/09/30 01:45:06;;;;;;;44.55;3.75;;;8.30;99.90;;;;;;5073979;28;20053;-76
2022/09/30 01:48:03;;;;;;;14.77;2.53;;;8.30;99.90;;;;;;5079456;28;20403;-76
2022/09/30 01:50:51;;;;;;;4.53;2.22;;;8.30;99.90;;;;;;5074524;28;20041;-76
2022/09/30 01:53:37;;;;;;;9.82;2.50;;;8.20;99.90;;;;;;5061454;28;20042;-76
2022/09/30 01:56:26;;;;;;;8.55;2.28;;;8.20;99.90;;;;;;5064832;28;20049;-76
2022/09/30 01:59:28;;;;;;;31.35;3.03;;;8.10;99.90;;;;;;5049238;28;20045;-76
2022/09/30 02:02:31;;;;;;;15.82;3.03;;;8.00;99.90;;;;;;5071538;28;20042;-76
2022/09/30 02:05:04;;;;;;;48.30;4.78;;;8.00;99.90;;;;;;4974289;28;20034;-76
2022/09/30 02:07:35;;;;;;;13.25;3.03;;;7.90;99.90;;;;;;5061824;28;20043;-76
2022/09/30 02:10:06;;;;;;;11.82;2.60;;;8.00;99.90;;;;;;5069747;28;20044;-75
2022/09/30 02:12:37;;;;;;;70.63;4.60;;;7.90;99.90;;;;;;5074870;28;20046;-75
2022/09/30 02:15:09;;;;;;;61.10;4.10;;;7.90;99.90;;;;;;5060068;28;20071;-76
2022/09/30 02:17:44;;;;;;;41.58;3.63;;;7.90;99.90;;;;;;5065169;28;20037;-75
2022/09/30 02:20:23;;;;;;;43.33;3.72;;;7.80;99.90;;;;;;5073174;28;20495;-75
2022/09/30 02:22:55;;;;;;;51.45;4.57;;;7.70;99.90;;;;;;5046119;28;20048;-76
2022/09/30 02:25:34;;;;;;;93.75;5.85;;;7.70;99.90;;;;;;5079380;28;20405;-76
2022/09/30 02:28:06;;;;;;;71.57;6.35;;;7.90;99.90;;;;;;5065569;28;20121;-75
2022/09/30 02:30:39;;;;;;;142.90;7.45;;;7.60;99.90;;;;;;5053867;28;20416;-76
2022/09/30 02:33:11;;;;;;;50.35;3.90;;;7.60;99.90;;;;;;5069982;28;20113;-75
2022/09/30 02:35:49;;;;;;;109.85;5.47;;;7.50;99.90;;;;;;5074501;28;20042;-76
2022/09/30 02:38:29;;;;;;;142.15;6.70;;;7.60;99.90;;;;;;5061158;28;20042;-76
2022/09/30 02:41:11;;;;;;;63.85;3.97;;;7.70;99.90;;;;;;5075793;28;20070;-75
2022/09/30 02:43:40;;;;;;;113.95;5.57;;;7.50;99.90;;;;;;5065092;28;20038;-76
2022/09/30 02:46:20;;;;;;;58.60;4.05;;;7.50;99.90;;;;;;5050272;28;20432;-76
2022/09/30 02:48:51;;;;;;;47.40;4.00;;;7.50;99.90;;;;;;5064074;28;20061;-76
2022/09/30 02:51:37;;;;;;;42.13;3.65;;;7.50;99.90;;;;;;5069024;28;20052;-76
2022/09/30 02:54:18;;;;;;;25.92;2.92;;;7.50;99.90;;;;;;5075295;28;20034;-75
2022/09/30 02:56:53;;;;;;;31.08;2.97;;;7.50;99.90;;;;;;5067926;28;20123;-75
2022/09/30 02:59:20;;;;;;;16.67;2.58;;;7.50;99.90;;;;;;5072568;28;20038;-75
2022/09/30 03:01:46;;;;;;;23.83;2.97;;;7.40;99.90;;;;;;5062675;28;20052;-75
2022/09/30 03:04:16;;;;;;;28.00;2.95;;;7.40;99.90;;;;;;5079145;28;20426;-75
2022/09/30 03:06:42;;;;;;;24.25;2.60;;;7.40;99.90;;;;;;5071524;28;20087;-75
2022/09/30 03:09:08;;;;;;;11.50;2.67;;;7.40;99.90;;;;;;5064381;28;20549;-75
2022/09/30 03:11:36;;;;;;;16.45;2.55;;;7.70;99.90;;;;;;5073295;28;20042;-75
2022/09/30 03:14:33;;;;;;;8.77;2.50;;;7.30;99.90;;;;;;5075375;28;20042;-75
2022/09/30 03:17:13;;;;;;;12.02;2.85;;;7.30;99.90;;;;;;5060435;28;20099;-76
2022/09/30 03:19:56;;;;;;;4.78;2.63;;;7.20;99.90;;;;;;5051735;28;20463;-75
2022/09/30 03:22:47;;;;;;;15.32;3.03;;;7.20;99.90;;;;;;5075261;28;20043;-76
2022/09/30 03:25:31;;;;;;;60.35;4.82;;;7.20;99.90;;;;;;5058652;28;20038;-76
2022/09/30 03:28:17;;;;;;;24.38;3.60;;;7.20;99.90;;;;;;5070123;28;20387;-75
2022/09/30 03:30:58;;;;;;;23.13;4.13;;;7.10;99.90;;;;;;5078391;28;20047;-75
2022/09/30 03:33:44;;;;;;;62.60;5.80;;;7.10;99.90;;;;;;5067376;28;20099;-76
2022/09/30 03:36:15;;;;;;;75.70;5.97;;;7.10;99.90;;;;;;5057360;28;20130;-76
2022/09/30 03:38:41;;;;;;;68.78;5.97;;;7.10;99.90;;;;;;5071892;28;20044;-75
2022/09/30 03:41:12;;;;;;;60.17;5.77;;;7.10;99.90;;;;;;5051947;28;20102;-75
2022/09/30 03:44:03;;;;;;;52.38;5.40;;;7.40;99.90;;;;;;5078424;28;20038;-75
2022/09/30 03:46:46;;;;;;;41.60;5.22;;;7.10;99.90;;;;;;5082337;28;20040;-76
2022/09/30 03:49:18;;;;;;;46.05;5.38;;;7.10;99.90;;;;;;5077043;28;20474;-75
2022/09/30 03:51:44;;;;;;;15.48;4.32;;;7.20;99.90;;;;;;5067789;28;20458;-75
2022/09/30 03:54:12;;;;;;;6.15;3.45;;;7.30;99.90;;;;;;5071379;28;20156;-76
2022/09/30 03:56:42;;;;;;;3.95;3.50;;;7.20;99.90;;;;;;5067815;28;20046;-76
2022/09/30 03:59:29;;;;;;;5.50;4.07;;;7.20;99.90;;;;;;5055044;28;20038;-76
2022/09/30 04:01:58;;;;;;;5.57;3.83;;;7.30;99.90;;;;;;5061257;28;20103;-76
2022/09/30 04:04:24;;;;;;;12.77;4.40;;;7.30;99.90;;;;;;5068663;28;20042;-75
2022/09/30 04:06:50;;;;;;;23.30;3.85;;;7.20;99.90;;;;;;5063068;28;20041;-76
2022/09/30 04:09:15;;;;;;;45.90;4.75;;;7.10;99.90;;;;;;5078314;28;20597;-75
2022/09/30 04:11:41;;;;;;;13.67;3.17;;;7.00;99.90;;;;;;5068188;28;20053;-76
2022/09/30 04:14:07;;;;;;;24.65;3.92;;;7.00;99.90;;;;;;5063367;28;20071;-76
2022/09/30 04:16:33;;;;;;;23.53;3.80;;;6.90;99.90;;;;;;5068385;28;20053;-75
2022/09/30 04:18:59;;;;;;;37.50;3.95;;;6.90;99.90;;;;;;5071920;28;20292;-76
2022/09/30 04:21:27;;;;;;;34.60;3.73;;;6.80;99.90;;;;;;5066523;28;20124;-75
2022/09/30 04:23:55;;;;;;;34.90;4.20;;;6.80;99.90;;;;;;5064654;28;20501;-75
2022/09/30 04:26:21;;;;;;;56.70;4.50;;;6.80;99.90;;;;;;5051435;28;20040;-75
2022/09/30 04:28:47;;;;;;;63.80;5.65;;;6.60;99.90;;;;;;5063905;28;20666;-74
2022/09/30 04:31:16;;;;;;;63.97;5.25;;;6.70;99.90;;;;;;5081867;28;20502;-75
2022/09/30 04:33:43;;;;;;;185.13;10.20;;;6.70;99.90;;;;;;5068723;28;20049;-76
2022/09/30 04:36:10;;;;;;;78.53;6.10;;;6.70;99.90;;;;;;5067924;28;20054;-76
2022/09/30 04:38:35;;;;;;;111.88;7.30;;;6.70;99.90;;;;;;5074251;28;20039;-75
2022/09/30 04:41:04;;;;;;;118.83;8.67;;;6.70;99.90;;;;;;5052612;28;20115;-75
2022/09/30 04:43:30;;;;;;;72.53;5.97;;;6.70;99.90;;;;;;5076554;28;20308;-75
2022/09/30 04:45:56;;;;;;;74.63;5.95;;;6.70;99.90;;;;;;5065614;28;20478;-75
2022/09/30 04:48:23;;;;;;;130.85;6.90;;;6.60;99.90;;;;;;5054502;28;20384;-76
2022/09/30 04:50:49;;;;;;;55.03;5.10;;;6.70;99.90;;;;;;5076869;28;20506;-76
2022/09/30 04:53:16;;;;;;;84.70;6.53;;;6.80;99.90;;;;;;5079287;28;20153;-76
2022/09/30 04:55:43;;;;;;;85.78;6.85;;;6.80;99.90;;;;;;5080449;28;20197;-76
2022/09/30 04:58:09;;;;;;;38.53;5.18;;;6.80;99.90;;;;;;5073483;28;20098;-76
2022/09/30 05:00:35;;;;;;;57.30;5.85;;;7.20;99.90;;;;;;5079673;28;20131;-76
2022/09/30 05:03:02;;;;;;;74.57;6.63;;;6.70;99.90;;;;;;5069439;28;20049;-76
2022/09/30 05:05:27;;;;;;;;;;;6.90;99.90;;;;;;5073215;28;20046;-76
2022/09/30 05:07:59;;;;;;;39.47;4.85;;;6.70;99.90;;;;;;5073600;28;20367;-76
2022/09/30 05:10:25;;;;;;;15.00;4.13;;;6.70;99.90;;;;;;5057931;28;20045;-76
2022/09/30 05:12:52;;;;;;;18.48;4.85;;;6.70;99.90;;;;;;5053709;28;20726;-76
2022/09/30 05:15:17;;;;;;;14.40;4.95;;;6.70;99.90;;;;;;5069264;28;20041;-76
2022/09/30 05:17:43;;;;;;;30.37;5.40;;;6.70;99.90;;;;;;5062516;28;20104;-76
2022/09/30 05:20:10;;;;;;;11.10;4.60;;;6.70;99.90;;;;;;5071301;28;20052;-75
2022/09/30 05:22:37;;;;;;;40.88;6.50;;;6.70;99.90;;;;;;5076538;28;20065;-76
2022/09/30 05:25:03;;;;;;;80.70;6.72;;;6.70;99.90;;;;;;5067632;28;20056;-76
2022/09/30 05:27:29;;;;;;;24.48;4.70;;;6.70;99.90;;;;;;5071943;28;20125;-76
2022/09/30 05:29:55;;;;;;;82.03;7.43;;;6.80;99.90;;;;;;5079597;28;20745;-77
2022/09/30 05:32:21;;;;;;;42.57;4.67;;;6.70;99.90;;;;;;5067261;28;20038;-76
2022/09/30 05:34:47;;;;;;;79.68;6.88;;;6.90;99.90;;;;;;5036459;28;20326;-76
2022/09/30 05:37:12;;;;;;;47.10;5.33;;;6.60;99.90;;;;;;5056143;28;20082;-77
2022/09/30 05:39:38;;;;;;;53.83;5.40;;;6.70;99.90;;;;;;5061819;28;20362;-76
2022/09/30 05:42:04;;;;;;;56.97;5.20;;;6.60;99.90;;;;;;5057259;28;20040;-76
2022/09/30 05:44:29;;;;;;;53.27;5.60;;;6.60;99.90;;;;;;5082278;28;20284;-76
2022/09/30 05:46:55;;;;;;;79.13;6.47;;;6.70;99.90;;;;;;5064879;28;20105;-76
2022/09/30 05:49:21;;;;;;;78.80;7.32;;;6.60;99.90;;;;;;5078183;28;20034;-76
2022/09/30 05:51:47;;;;;;;21.47;4.80;;;6.70;99.90;;;;;;5071087;28;20034;-76
2022/09/30 05:54:13;;;;;;;28.87;4.70;;;6.60;99.90;;;;;;5059758;28;20434;-76
2022/09/30 05:56:38;;;;;;;27.02;4.53;;;6.80;99.90;;;;;;5069813;28;20053;-76
2022/09/30 05:59:05;;;;;;;41.33;5.07;;;6.60;99.90;;;;;;5073407;28;21458;-76
2022/09/30 06:01:31;;;;;;;29.75;4.40;;;6.60;99.90;;;;;;5068162;28;20049;-76
2022/09/30 06:03:57;;;;;;;52.60;5.43;;;6.60;99.90;;;;;;5079652;28;20099;-76
2022/09/30 06:06:23;;;;;;;23.63;4.65;;;6.60;99.90;;;;;;5067342;28;20117;-77
2022/09/30 06:08:48;;;;;;;12.53;4.10;;;6.60;99.90;;;;;;5073956;28;20139;-76
2022/09/30 06:11:16;;;;;;;29.17;4.57;;;6.60;99.90;;;;;;5049322;28;20282;-76
2022/09/30 06:13:43;;;;;;;5.65;3.85;;;6.70;99.90;;;;;;5073491;28;20045;-76
2022/09/30 06:16:10;;;;;;;5.15;3.33;;;6.70;99.90;;;;;;5077042;28;20046;-76
2022/09/30 06:18:37;;;;;;;5.35;2.85;;;6.70;99.90;;;;;;5067378;28;20038;-76
2022/09/30 06:21:04;;;;;;;8.32;3.40;;;7.00;99.90;;;;;;5073747;28;20514;-76
2022/09/30 06:23:33;;;;;;;9.07;3.05;;;6.80;99.90;;;;;;5076363;28;20407;-76
2022/09/30 06:26:01;;;;;;;3.05;2.75;;;6.90;99.90;;;;;;5064857;28;20137;-76
2022/09/30 06:28:27;;;;;;;7.68;3.60;;;6.90;99.90;;;;;;5069211;28;20038;-76
2022/09/30 06:30:53;;;;;;;6.45;4.07;;;7.00;99.90;;;;;;5078780;28;20124;-76
2022/09/30 06:33:20;;;;;;;5.75;4.10;;;7.00;99.90;;;;;;5063295;28;20105;-76
2022/09/30 06:35:46;;;;;;;5.43;4.28;;;7.10;99.90;;;;;;5081461;28;20040;-75
2022/09/30 06:38:16;;;;;;;5.03;4.18;;;7.30;99.90;;;;;;5051101;28;20068;-77
2022/09/30 06:40:48;;;;;;;4.53;4.03;;;7.40;99.90;;;;;;5079796;28;20143;-76
2022/09/30 06:43:14;;;;;;;5.13;4.40;;;7.50;99.90;;;;;;5081926;28;20075;-76
2022/09/30 06:45:40;;;;;;;5.88;4.13;;;7.70;99.90;;;;;;5065558;28;20072;-76
2022/09/30 06:48:08;;;;;;;5.88;4.25;;;7.80;99.90;;;;;;5082792;28;20088;-76
2022/09/30 06:50:35;;;;;;;4.47;3.95;;;7.90;99.90;;;;;;5083749;28;20040;-77
2022/09/30 06:53:05;;;;;;;7.82;3.95;;;8.00;99.90;;;;;;5084015;28;20451;-76
2022/09/30 06:55:31;;;;;;;5.47;4.63;;;8.10;99.90;;;;;;5078964;28;20075;-76
2022/09/30 06:57:58;;;;;;;16.63;4.88;;;8.30;99.90;;;;;;5086005;28;20040;-76
2022/09/30 07:00:26;;;;;;;5.20;4.25;;;8.40;99.90;;;;;;5081325;28;20559;-76
2022/09/30 07:02:55;;;;;;;6.25;4.18;;;8.50;99.90;;;;;;5078904;28;20387;-77
2022/09/30 07:05:22;;;;;;;4.60;3.88;;;8.70;99.90;;;;;;5075910;28;20036;-76
2022/09/30 07:07:48;;;;;;;;;;;8.80;99.90;;;;;;5064870;28;20513;-76
2022/09/30 07:10:14;;;;;;;4.50;3.70;;;9.00;99.90;;;;;;5080857;28;19970;-76
2022/09/30 07:12:41;;;;;;;6.28;4.18;;;9.20;99.90;;;;;;5066571;28;20045;-76
2022/09/30 07:15:07;;;;;;;5.50;4.45;;;9.30;99.90;;;;;;5085949;28;20047;-76
2022/09/30 07:17:32;;;;;;;6.40;4.32;;;9.50;99.90;;;;;;5071170;28;20050;-76
2022/09/30 07:20:07;;;;;;;5.85;3.92;;;9.70;99.90;;;;;;5089972;28;20645;-76
2022/09/30 07:22:33;;;;;;;4.78;3.88;;;9.90;99.90;;;;;;5088036;28;20040;-76
2022/09/30 07:25:03;;;;;;;5.38;3.97;;;10.00;99.90;;;;;;5088096;28;20048;-77
2022/09/30 07:27:32;;;;;;;5.43;4.07;;;10.20;99.90;;;;;;5087697;28;20068;-76
2022/09/30 07:29:58;;;;;;;4.82;3.78;;;10.70;99.90;;;;;;5070853;28;20119;-77
2022/09/30 07:32:24;;;;;;;4.93;3.85;;;11.40;99.90;;;;;;5088153;28;20480;-76
2022/09/30 07:34:50;;;;;;;4.05;3.13;;;12.10;99.90;;;;;;5087827;28;20051;-76
2022/09/30 07:37:18;;;;;;;4.40;3.78;;;12.80;99.90;;;;;;5087730;28;20044;-77
2022/09/30 07:39:46;;;;;;;4.22;3.20;;;13.40;99.90;;;;;;5087667;28;20078;-77
2022/09/30 07:42:20;;;;;;;4.57;3.45;;;13.90;99.90;;;;;;5087645;28;20083;-77
2022/09/30 07:44:46;;;;;;;3.67;3.15;;;14.50;99.90;;;;;;5082467;28;20039;-77
2022/09/30 07:47:14;;;;;;;4.80;3.22;;;15.00;99.90;;;;;;5087567;28;20036;-78
2022/09/30 07:49:41;;;;;;;3.97;3.20;;;15.50;99.90;;;;;;5088056;28;20047;-78
2022/09/30 07:52:08;;;;;;;5.40;3.33;;;15.90;99.90;;;;;;5068090;28;20048;-77
2022/09/30 07:54:34;;;;;;;3.15;2.80;;;16.30;99.90;;;;;;5087425;28;20105;-77
2022/09/30 07:57:01;;;;;;;4.63;3.15;;;16.60;99.90;;;;;;5087096;28;20037;-76
2022/09/30 07:59:30;;;;;;;3.47;2.92;;;16.50;99.90;;;;;;5087169;28;20162;-77
2022/09/30 08:01:56;;;;;;;4.63;2.83;;;17.10;99.90;;;;;;5087447;28;20036;-77
2022/09/30 08:04:24;;;;;;;3.08;2.50;;;17.20;99.90;;;;;;5087346;28;20039;-76
2022/09/30 08:06:59;;;;;;;4.45;2.88;;;17.20;99.90;;;;;;5086837;28;20573;-76
2022/09/30 08:09:26;;;;;;;5.57;2.58;;;17.50;99.90;;;;;;5070106;28;20040;-77
2022/09/30 08:11:52;;;;;;;3.70;2.70;;;17.90;99.90;;;;;;5069635;28;20036;-77
2022/09/30 08:14:24;;;;;;;3.85;2.45;;;18.20;99.90;;;;;;5086927;28;20072;-77
2022/09/30 08:16:50;;;;;;;3.10;2.58;;;18.70;99.90;;;;;;5086809;28;20060;-76
2022/09/30 08:19:17;;;;;;;;;;;18.70;99.90;;;;;;5087207;28;20395;-75
2022/09/30 08:21:44;;;;;;;4.13;2.78;;;18.80;99.90;;;;;;5087049;28;20340;-76
2022/09/30 08:24:10;;;;;;;3.63;2.88;;;18.90;99.90;;;;;;5086543;28;20033;-77
2022/09/30 08:26:36;;;;;;;3.30;2.42;;;19.00;99.90;;;;;;5086722;28;20581;-78
2022/09/30 08:29:02;;;;;;;3.42;2.70;;;19.40;99.90;;;;;;5086331;28;20052;-77
2022/09/30 08:31:28;;;;;;;3.53;2.88;;;19.80;99.90;;;;;;5055777;28;20132;-78
2022/09/30 08:33:54;;;;;;;4.05;3.08;;;19.90;99.90;;;;;;5072551;28;20077;-77
2022/09/30 08:36:21;;;;;;;;;;;20.30;99.90;;;;;;5073395;28;20041;-77
2022/09/30 08:38:47;;;;;;;3.75;2.90;;;20.30;99.90;;;;;;5072271;28;19963;-77
2022/09/30 08:41:27;;;;;;;;;;;20.50;99.90;;;;;;5073191;28;20029;-77
2022/09/30 08:44:19;;;;;;;3.40;2.67;;;20.30;99.90;;;;;;5072504;28;19922;-77
2022/09/30 08:47:02;;;;;;;3.75;2.97;;;20.60;99.90;;;;;;5072286;28;20055;-77
2022/09/30 08:49:48;;;;;;;4.32;3.35;;;20.90;99.90;;;;;;5070881;28;20106;-77
2022/09/30 08:52:19;;;;;;;3.72;3.13;;;21.20;99.90;;;;;;5054785;28;20137;-77
2022/09/30 08:54:53;;;;;;;3.45;3.03;;;21.50;99.90;;;;;;5072367;28;20056;-76
2022/09/30 08:57:20;;;;;;;4.30;3.13;;;21.40;99.90;;;;;;5071806;28;20045;-77
2022/09/30 08:59:59;;;;;;;4.97;3.53;;;21.60;99.90;;;;;;5071771;28;20159;-77
2022/09/30 09:02:49;;;;;;;4.28;3.50;;;22.00;99.90;;;;;;5068826;28;20082;-76
2022/09/30 09:05:37;;;;;;;4.20;3.28;;;21.90;99.90;;;;;;5061291;28;20033;-76
2022/09/30 09:08:05;;;;;;;4.07;3.47;;;21.80;99.90;;;;;;5070125;28;20121;-76
2022/09/30 09:10:50;;;;;;;5.07;4.05;;;22.10;99.90;;;;;;5051730;28;20040;-77
2022/09/30 09:13:24;;;;;;;4.88;3.85;;;21.80;99.90;;;;;;5070704;28;20484;-76
2022/09/30 09:16:20;;;;;;;3.70;3.35;;;21.60;99.90;;;;;;5070935;28;20056;-77
2022/09/30 09:19:09;;;;;;;4.57;4.10;;;21.80;99.90;;;;;;5070993;28;20068;-78
2022/09/30 09:21:58;;;;;;;5.30;4.43;;;21.50;99.90;;;;;;5070240;28;20040;-77
2022/09/30 09:24:26;;;;;;;4.38;3.88;;;20.70;99.90;;;;;;5054818;28;20118;-76
2022/09/30 09:26:55;;;;;;;5.15;4.20;;;20.20;99.90;;;;;;5069606;28;20166;-77
2022/09/30 09:29:42;;;;;;;5.85;4.30;;;20.00;99.90;;;;;;5071870;28;20093;-76
2022/09/30 09:32:16;;;;;;;4.88;3.88;;;19.50;99.90;;;;;;5070789;28;20055;-76
2022/09/30 09:34:42;;;;;;;4.90;4.25;;;19.10;99.90;;;;;;5052777;28;20039;-77
2022/09/30 09:37:14;;;;;;;;;;;19.20;99.90;;;;;;5070316;28;21157;-75
2022/09/30 09:40:13;;;;;;;4.07;3.65;;;19.60;99.90;;;;;;5070904;28;19920;-76
2022/09/30 09:43:02;;;;;;;3.95;3.53;;;20.50;99.90;;;;;;5067688;28;20051;-75
2022/09/30 09:45:33;;;;;;;4.07;3.30;;;20.80;99.90;;;;;;5070460;28;20056;-76
2022/09/30 09:48:00;;;;;;;4.85;2.95;;;21.00;99.90;;;;;;5071148;28;20131;-76
2022/09/30 09:50:42;;;;;;;4.10;3.00;;;20.60;99.90;;;;;;5070788;28;20086;-76
2022/09/30 09:53:32;;;;;;;3.00;2.70;;;21.30;99.90;;;;;;5069207;28;20041;-75
2022/09/30 09:55:58;;;;;;;2.90;2.60;;;21.80;99.90;;;;;;5067490;28;20040;-76
2022/09/30 09:58:25;;;;;;;2.83;2.53;;;22.10;99.90;;;;;;5070762;28;20434;-75
2022/09/30 10:03:23;;;;;;;2.53;2.28;;;22.60;99.90;;;;;;5054413;28;20076;-76
2022/09/30 10:06:02;;;;;;;3.03;2.50;;;22.60;99.90;;;;;;5070093;28;20036;-75
2022/09/30 10:08:30;;;;;;;2.50;2.10;;;23.00;99.90;;;;;;5069216;28;20059;-76
2022/09/30 10:11:02;;;;;;;2.40;2.20;;;23.40;99.90;;;;;;5053369;28;20098;-76
2022/09/30 10:13:37;;;;;;;2.60;1.98;;;23.50;99.90;;;;;;5070337;28;20541;-76
2022/09/30 10:16:03;;;;;;;2.88;2.35;;;23.90;99.90;;;;;;5069946;28;20396;-76
2022/09/30 10:18:33;;;;;;;3.53;2.40;;;23.50;99.90;;;;;;5070020;28;20048;-76
2022/09/30 10:21:21;;;;;;;2.53;2.33;;;23.70;99.50;;;;;;5069773;28;20055;-76
2022/09/30 10:23:47;;;;;;;3.35;2.80;;;24.00;99.70;;;;;;5069957;28;20032;-76
2022/09/30 10:26:13;;;;;;;3.13;2.63;;;24.00;99.90;;;;;;5070525;28;20094;-77
2022/09/30 10:28:49;;;;;;;;;;;24.40;99.20;;;;;;5070255;28;20095;-76
2022/09/30 10:31:35;;;;;;;3.78;3.33;;;24.70;98.60;;;;;;5069784;28;19942;-76
2022/09/30 10:34:08;;;;;;;4.22;3.28;;;24.90;98.10;;;;;;5068168;28;20041;-76
2022/09/30 10:36:37;;;;;;;4.60;3.20;;;24.20;98.70;;;;;;5070597;28;20085;-76
2022/09/30 10:39:14;;;;;;;4.78;3.70;;;24.70;98.10;;;;;;5069880;28;20037;-77
2022/09/30 10:41:42;;;;;;;4.15;3.72;;;24.50;98.40;;;;;;5054062;28;20048;-77
2022/09/30 10:44:27;;;;;;;4.47;3.25;;;24.90;98.10;;;;;;5071273;28;20496;-78
2022/09/30 10:47:00;;;;;;;5.10;3.33;;;24.90;98.40;;;;;;5070265;28;20476;-77
2022/09/30 10:49:35;;;;;;;2.95;2.60;;;25.30;97.30;;;;;;5069415;28;20048;-76
2022/09/30 10:52:01;;;;;;;3.22;2.60;;;25.50;97.00;;;;;;5070299;28;20404;-77
2022/09/30 10:54:45;;;;;;;3.17;2.17;;;25.70;96.80;;;;;;5054415;28;20045;-78
2022/09/30 10:57:28;;;;;;;2.65;1.45;;;25.40;96.50;;;;;;5071075;28;20080;-77
2022/09/30 10:59:59;;;;;;;1.83;1.30;;;25.60;95.40;;;;;;5069118;28;20082;-78
2022/09/30 11:02:33;;;;;;;1.85;1.20;;;25.60;94.90;;;;;;5069247;28;20032;-78
2022/09/30 11:05:14;;;;;;;3.95;1.20;;;25.50;96.00;;;;;;5068928;28;20120;-77
2022/09/30 11:07:58;;;;;;;1.15;0.73;;;25.90;95.20;;;;;;5069422;28;20037;-77
2022/09/30 11:10:39;;;;;;;1.95;0.80;;;26.00;94.30;;;;;;5052692;28;20396;-77
2022/09/30 11:13:12;;;;;;;2.30;0.60;;;26.30;94.10;;;;;;5068779;28;20132;-76
2022/09/30 11:15:38;;;;;;;1.08;0.70;;;26.00;94.20;;;;;;5067393;28;20419;-77
2022/09/30 11:18:03;;;;;;;;;;;26.10;94.30;;;;;;5052052;28;20052;-76
2022/09/30 11:20:35;;;;;;;2.15;0.70;;;25.80;94.40;;;;;;5069075;28;19920;-76
2022/09/30 11:23:13;;;;;;;2.45;0.95;;;25.40;93.90;;;;;;5052364;28;20491;-82
2022/09/30 11:26:04;;;;;;;1.42;0.90;;;25.20;93.90;;;;;;5069202;28;20048;-77
2022/09/30 11:29:04;;;;;;;2.28;1.00;;;25.10;94.40;;;;;;5067791;28;20460;-78
2022/09/30 11:31:32;;;;;;;2.95;0.90;;;25.00;94.60;;;;;;5052726;28;20398;-78
2022/09/30 11:34:17;;;;;;;2.10;0.90;;;24.70;94.40;;;;;;5068728;28;20036;-79
2022/09/30 11:36:56;;;;;;;1.48;0.57;;;24.80;94.70;;;;;;5069105;28;20040;-78
2022/09/30 11:39:41;;;;;;;1.42;0.73;;;24.70;93.90;;;;;;5052108;28;20522;-77
2022/09/30 11:42:39;;;;;;;1.52;0.60;;;24.30;94.40;;;;;;5066698;28;20508;-78
2022/09/30 11:45:30;;;;;;;1.30;0.70;;;24.10;94.30;;;;;;5034764;28;20128;-77
2022/09/30 11:48:34;;;;;;;1.70;0.57;;;23.50;95.40;;;;;;5068311;28;20040;-77
2022/09/30 11:51:09;;;;;;;1.20;0.60;;;22.70;95.60;;;;;;5066613;28;20101;-79
2022/09/30 11:53:52;;;;;;;1.05;0.57;;;22.30;95.80;;;;;;5052730;28;20041;-78
2022/09/30 11:56:34;;;;;;;1.45;0.60;;;22.60;96.40;;;;;;5067105;28;20048;-78
2022/09/30 11:59:05;;;;;;;2.60;0.57;;;23.50;95.40;;;;;;5067292;28;20349;-78
2022/09/30 12:01:44;;;;;;;1.35;0.63;;;24.20;94.90;;;;;;5069181;28;20084;-78
2022/09/30 12:04:32;;;;;;;1.70;0.73;;;24.80;94.80;;;;;;5068683;28;20048;-78
2022/09/30 12:07:04;;;;;;;2.17;0.60;;;25.20;93.70;;;;;;5062936;28;20500;-77
2022/09/30 12:09:45;;;;;;;1.58;0.40;;;25.20;93.90;;;;;;5087418;28;20328;-77
2022/09/30 12:12:13;;;;;;;1.52;0.40;;;24.60;93.50;;;;;;5053560;28;20036;-77
2022/09/30 12:14:44;;;;;;;1.00;0.47;;;24.20;94.10;;;;;;5072825;28;20036;-79
2022/09/30 12:17:33;;;;;;;1.48;0.50;;;24.20;94.30;;;;;;5070483;28;20488;-78
2022/09/30 12:20:15;;;;;;;0.80;0.40;;;24.20;94.30;;;;;;5071091;28;20052;-79
2022/09/30 12:22:44;;;;;;;0.98;0.52;;;24.00;94.40;;;;;;5072819;28;20047;-78
2022/09/30 12:25:15;;;;;;;1.13;0.35;;;23.50;94.50;;;;;;5072022;28;20043;-78
2022/09/30 12:27:52;;;;;;;0.73;0.40;;;22.90;95.30;;;;;;5072227;28;20045;-78
2022/09/30 12:30:19;;;;;;;;;;;22.50;95.90;;;;;;5072530;28;20059;-78
2022/09/30 12:33:16;;;;;;;1.88;0.60;;;22.40;96.00;;;;;;5072402;28;19916;-78
2022/09/30 12:36:02;;;;;;;0.80;0.40;;;22.80;95.70;;;;;;5070736;28;20067;-77
2022/09/30 12:38:37;;;;;;;0.70;0.30;;;22.80;95.60;;;;;;5071756;28;20052;-78
2022/09/30 12:41:18;;;;;;;1.02;0.35;;;22.50;95.90;;;;;;5071558;28;20029;-77
2022/09/30 12:44:31;;;;;;;1.02;0.30;;;22.20;95.90;;;;;;5072220;28;20040;-78
2022/09/30 12:47:08;;;;;;;0.40;0.20;;;22.30;96.30;;;;;;5038997;28;20135;-77
2022/09/30 12:49:38;;;;;;;0.80;0.30;;;22.40;95.60;;;;;;5072173;28;20377;-77
2022/09/30 12:52:10;;;;;;;0.70;0.40;;;22.60;95.40;;;;;;5071496;28;20048;-78
2022/09/30 12:54:40;;;;;;;0.60;0.30;;;22.30;95.60;;;;;;5072258;28;20497;-78
2022/09/30 12:57:08;;;;;;;1.33;0.40;;;22.50;96.00;;;;;;5069127;28;20083;-78
2022/09/30 12:59:47;;;;;;;0.80;0.40;;;23.10;95.90;;;;;;5071527;28;20116;-78
2022/09/30 13:02:30;;;;;;;1.55;0.30;;;23.20;95.30;;;;;;5071579;28;20397;-77
2022/09/30 13:05:31;;;;;;;1.50;0.40;;;22.50;96.10;;;;;;5054234;28;20051;-77
2022/09/30 13:08:05;;;;;;;1.20;0.60;;;22.10;96.10;;;;;;5071521;28;20125;-77
2022/09/30 13:10:46;;;;;;;3.03;0.40;;;22.20;96.00;;;;;;5071235;28;20081;-77
2022/09/30 13:13:26;;;;;;;0.70;0.35;;;22.20;96.20;;;;;;5072259;28;20029;-77
2022/09/30 13:16:01;;;;;;;0.90;0.50;;;22.00;95.80;;;;;;5071262;28;20337;-77
2022/09/30 13:18:28;;;;;;;2.55;0.60;;;21.90;95.90;;;;;;5070910;28;20080;-77
2022/09/30 13:21:07;;;;;;;1.35;0.80;;;21.80;96.00;;;;;;5071517;28;20094;-77
2022/09/30 13:23:52;;;;;;;2.75;0.85;;;21.60;96.40;;;;;;5071469;28;20080;-77
2022/09/30 13:26:39;;;;;;;1.40;0.63;;;21.70;96.00;;;;;;5071274;28;20051;-77
2022/09/30 13:29:04;;;;;;;3.00;1.20;;;21.50;96.80;;;;;;5070339;28;20076;-77